Antwerpen Express — DGAF — position and weather

sailwx.info

Track history (hours):
 
Tides and Currents Weather Stations Pressure Air Temp Water Temp Dewpoint Dewpoint Depression Visibility Wind Speed Wind Dir Waves Ship Positions

Antwerpen Express

Last reported at 2017-Dec-11 08:27 UTC. Time now 2017-Dec-12 04:37 UTC.
Position N 38°52' W 123°56'.

Length 294.2 m; beam 32.2 m; draft 13.6 m.

Type: Ship. MMSI: 211311970.

Date/timePositionNaut miles runAvg speedWind from/ knotsBaromVisibWave heightAir tempDewpointWater temp
2017-Dec-11 08:27N 38°52' W 123°56'716.3
2017-Dec-11 08:00N 38°46' W 123°51'816.3
2017-Dec-11 07:30N 38°39' W 123°45'815.8
2017-Dec-11 07:00N 38°33' W 123°40'815.7
2017-Dec-11 06:30N 38°26' W 123°34'815.8
2017-Dec-11 06:00N 38°20' W 123°29'815.6
2017-Dec-11 05:30N 38°13' W 123°23'815.5
2017-Dec-11 05:00N 38°07' W 123°18'815.3
2017-Dec-11 04:30N 38°01' W 123°11'815.4
2017-Dec-11 04:00N 37°56' W 123°04'815.8
2017-Dec-11 03:30N 37°52' W 122°55'714.7
2017-Dec-11 03:00N 37°49' W 122°47'611.5
2017-Dec-11 02:31N 37°46' W 122°40'5 9.9
2017-Dec-11 02:00N 37°47' W 122°34'714.8
2017-Dec-11 01:31N 37°51' W 122°26'611.9
2017-Dec-11 01:00N 37°48' W 122°19'0 0.1
2017-Dec-11 00:30N 37°48' W 122°19'0 0.0
2017-Dec-10 23:59N 37°48' W 122°19'0 0.0
2017-Dec-10 23:29N 37°48' W 122°19'0 0.0
2017-Dec-10 22:59N 37°48' W 122°19'0 0.0
2017-Dec-10 22:29N 37°48' W 122°19'0 0.0
2017-Dec-10 21:59N 37°48' W 122°19'0 0.0
2017-Dec-10 21:28N 37°48' W 122°19'0 0.0
2017-Dec-10 20:58N 37°48' W 122°19'0 0.0
2017-Dec-10 20:28N 37°48' W 122°19'0 0.0
2017-Dec-10 19:58N 37°48' W 122°19'0 0.0
2017-Dec-10 19:31N 37°48' W 122°19'0 0.0
2017-Dec-10 19:00N 37°48' W 122°19'0 0.0
2017-Dec-10 18:30N 37°48' W 122°19'0 0.0
2017-Dec-10 18:00N 37°48' W 122°19'0 0.0
2017-Dec-10 17:30N 37°48' W 122°19'0 0.0
2017-Dec-10 16:59N 37°48' W 122°19'0 0.0
2017-Dec-10 16:29N 37°48' W 122°19'0 0.0
2017-Dec-10 15:59N 37°48' W 122°19'0 0.0
2017-Dec-10 15:29N 37°48' W 122°19'0 0.0
2017-Dec-10 14:58N 37°48' W 122°19'0 0.0
2017-Dec-10 14:28N 37°48' W 122°19'0 0.0
2017-Dec-10 13:59N 37°48' W 122°19'0 0.1
2017-Dec-10 13:30N 37°48' W 122°19'2 3.1
2017-Dec-10 13:01N 37°48' W 122°17'1 2.1
2017-Dec-10 12:30N 37°48' W 122°19'4 8.1
2017-Dec-10 12:00N 37°49' W 122°24'714.6
2017-Dec-10 11:31N 37°47' W 122°33'714.2
2017-Dec-10 11:01N 37°44' W 122°41'510.5
2017-Dec-10 10:31N 37°39' W 122°40'510.3
2017-Dec-10 10:00N 37°34' W 122°40'5 9.8
2017-Dec-10 09:30N 37°29' W 122°40'5 9.6
2017-Dec-10 09:01N 37°24' W 122°40'5 9.6
2017-Dec-10 08:30N 37°20' W 122°40'510.0
2017-Dec-10 08:00N 37°15' W 122°39'611.3
2017-Dec-10 07:31N 37°09' W 122°38'713.6
2017-Dec-10 07:01N 37°03' W 122°35'713.7
2017-Dec-10 06:30N 36°56' W 122°32'714.4
2017-Dec-10 06:00N 36°50' W 122°29'713.9
2017-Dec-10 05:30N 36°43' W 122°25'714.2
2017-Dec-10 05:00N 36°37' W 122°22'714.1
2017-Dec-10 04:30N 36°30' W 122°18'714.1
2017-Dec-10 04:00N 36°24' W 122°15'714.4
2017-Dec-10 03:30N 36°17' W 122°12'714.6
2017-Dec-10 03:00N 36°11' W 122°07'714.4
2017-Dec-10 02:30N 36°05' W 122°03'714.7
2017-Dec-10 02:00N 35°58' W 121°58'714.5
2017-Dec-10 01:30N 35°52' W 121°54'714.4
2017-Dec-10 01:00N 35°46' W 121°49'714.3
2017-Dec-10 00:31N 35°40' W 121°45'714.3
2017-Dec-10 00:00N 35°33' W 121°40'814.5
2017-Dec-09 23:28N 35°27' W 121°35'714.6
2017-Dec-09 23:00N 35°21' W 121°31'714.5
2017-Dec-09 22:30N 35°15' W 121°27'714.5
2017-Dec-09 22:00N 35°08' W 121°22'714.7
2017-Dec-09 21:31N 35°02' W 121°18'714.6
2017-Dec-09 21:00N 34°56' W 121°13'714.5
2017-Dec-09 20:30N 34°50' W 121°09'714.5
2017-Dec-09 20:01N 34°43' W 121°04'714.3
2017-Dec-09 19:30N 34°37' W 120°60'713.1
2017-Dec-09 19:00N 34°32' W 120°55'613.0
2017-Dec-09 18:31N 34°26' W 120°51'510.3
2017-Dec-09 18:00N 34°25' W 120°45'510.6
2017-Dec-09 17:30N 34°23' W 120°39'610.5
2017-Dec-09 16:57N 34°22' W 120°32'510.4
2017-Dec-09 16:26N 34°20' W 120°26'510.4
2017-Dec-09 15:59N 34°19' W 120°20'610.5
2017-Dec-09 15:27N 34°18' W 120°14'510.4
2017-Dec-09 14:59N 34°16' W 120°08'510.5
2017-Dec-09 14:30N 34°15' W 120°02'510.5
2017-Dec-09 13:59N 34°14' W 119°56'510.3
2017-Dec-09 13:27N 34°12' W 119°50'510.2
2017-Dec-09 13:00N 34°11' W 119°44'510.4
2017-Dec-09 12:29N 34°10' W 119°38'510.7
2017-Dec-09 12:00N 34°08' W 119°32'610.6
2017-Dec-09 11:29N 34°07' W 119°25'510.6
2017-Dec-09 11:00N 34°05' W 119°20'610.7
2017-Dec-09 10:30N 34°03' W 119°13'510.9
2017-Dec-09 10:00N 34°01' W 119°08'510.7
2017-Dec-09 09:30N 33°58' W 119°02'510.7
2017-Dec-09 09:00N 33°55' W 118°57'610.7
2017-Dec-09 08:26N 33°53' W 118°50'510.9
2017-Dec-09 08:00N 33°50' W 118°45'510.7
2017-Dec-09 07:30N 33°47' W 118°40'510.7
2017-Dec-09 07:00N 33°45' W 118°34'510.7
2017-Dec-09 06:30N 33°42' W 118°29'510.6
2017-Dec-09 06:00N 33°39' W 118°23'510.2
2017-Dec-09 05:30N 33°38' W 118°17'5 9.0
2017-Dec-09 05:00N 33°40' W 118°12'1 0.1
2017-Dec-08 12:55N 33°39' W 118°11'9 7.9
2017-Dec-08 11:50N 33°31' W 118°08'3 9.1
2017-Dec-08 11:29N 33°28' W 118°06'11 9.3
2017-Dec-08 10:19N 33°18' W 118°02'3 9.3
2017-Dec-08 10:00N 33°15' W 118°00'5 9.4
2017-Dec-08 09:30N 33°11' W 117°58'5 9.5
2017-Dec-08 08:57N 33°06' W 117°55'4 9.6
2017-Dec-08 08:30N 33°02' W 117°53'5 9.6
2017-Dec-08 08:00N 32°58' W 117°51'5 9.7
2017-Dec-08 07:28N 32°53' W 117°49'4 9.7
2017-Dec-08 07:01N 32°49' W 117°47'5 9.7
2017-Dec-08 06:30N 32°45' W 117°44'510.1
2017-Dec-08 06:00N 32°40' W 117°42'713.3
2017-Dec-08 05:30N 32°34' W 117°39'9116.4
2017-Dec-08 00:00N 31°06' W 117°12'9415.6 060 / 151021.610.8 20.7 4.720.0
2017-Dec-07 18:00N 29°36' W 116°42'38316.0 050 / 31020.910.8 22.814.920.0
2017-Dec-06 18:00N 24°18' W 112°42'38115.9 350 / 51017.210.8 24.417.124.0
2017-Dec-05 18:00N 20°30' W 107°12'225 6.3 040 / 101014.810.8 29.120.329.0
2017-Dec-04 06:00N 18°24' W 103°54'16013.3 320 / 71011.110.8 27.022.429.0
2017-Dec-03 18:00N 17°12' W 101°24'20016.7 1012.210.8 29.619.930.0
2017-Dec-03 06:00N 15°54' W 098°12'18915.8 020 / 81011.810.8 27.023.730.0
2017-Dec-02 18:00N 14°54' W 095°06'   030 / 391011.210.8 24.518.421.0
Track history (hours):
 
Tides and Currents Weather Stations Pressure Air Temp Water Temp Dewpoint Dewpoint Depression Visibility Wind Speed Wind Dir Waves Ship Positions

Antwerpen Express

Last reported at 2017-Dec-11 08:27 UTC. Time now 2017-Dec-12 04:37 UTC.
Position N 38°52' W 123°56'.

Length 294.2 m; beam 32.2 m; draft 13.6 m.

Type: Ship. MMSI: 211311970.

Date/timePositionNaut miles runAvg speedWind from/ knotsBaromVisibWave heightAir tempDewpointWater temp
2017-Dec-11 08:27N 38°52' W 123°56'716.3
2017-Dec-11 08:00N 38°46' W 123°51'816.3
2017-Dec-11 07:30N 38°39' W 123°45'815.8
2017-Dec-11 07:00N 38°33' W 123°40'815.7
2017-Dec-11 06:30N 38°26' W 123°34'815.8
2017-Dec-11 06:00N 38°20' W 123°29'815.6
2017-Dec-11 05:30N 38°13' W 123°23'815.5
2017-Dec-11 05:00N 38°07' W 123°18'815.3
2017-Dec-11 04:30N 38°01' W 123°11'815.4
2017-Dec-11 04:00N 37°56' W 123°04'815.8
2017-Dec-11 03:30N 37°52' W 122°55'714.7
2017-Dec-11 03:00N 37°49' W 122°47'611.5
2017-Dec-11 02:31N 37°46' W 122°40'5 9.9
2017-Dec-11 02:00N 37°47' W 122°34'714.8
2017-Dec-11 01:31N 37°51' W 122°26'611.9
2017-Dec-11 01:00N 37°48' W 122°19'0 0.1
2017-Dec-11 00:30N 37°48' W 122°19'0 0.0
2017-Dec-10 23:59N 37°48' W 122°19'0 0.0
2017-Dec-10 23:29N 37°48' W 122°19'0 0.0
2017-Dec-10 22:59N 37°48' W 122°19'0 0.0
2017-Dec-10 22:29N 37°48' W 122°19'0 0.0
2017-Dec-10 21:59N 37°48' W 122°19'0 0.0
2017-Dec-10 21:28N 37°48' W 122°19'0 0.0
2017-Dec-10 20:58N 37°48' W 122°19'0 0.0
2017-Dec-10 20:28N 37°48' W 122°19'0 0.0
2017-Dec-10 19:58N 37°48' W 122°19'0 0.0
2017-Dec-10 19:31N 37°48' W 122°19'0 0.0
2017-Dec-10 19:00N 37°48' W 122°19'0 0.0
2017-Dec-10 18:30N 37°48' W 122°19'0 0.0
2017-Dec-10 18:00N 37°48' W 122°19'0 0.0
2017-Dec-10 17:30N 37°48' W 122°19'0 0.0
2017-Dec-10 16:59N 37°48' W 122°19'0 0.0
2017-Dec-10 16:29N 37°48' W 122°19'0 0.0
2017-Dec-10 15:59N 37°48' W 122°19'0 0.0
2017-Dec-10 15:29N 37°48' W 122°19'0 0.0
2017-Dec-10 14:58N 37°48' W 122°19'0 0.0
2017-Dec-10 14:28N 37°48' W 122°19'0 0.0
2017-Dec-10 13:59N 37°48' W 122°19'0 0.1
2017-Dec-10 13:30N 37°48' W 122°19'2 3.1
2017-Dec-10 13:01N 37°48' W 122°17'1 2.1
2017-Dec-10 12:30N 37°48' W 122°19'4 8.1
2017-Dec-10 12:00N 37°49' W 122°24'714.6
2017-Dec-10 11:31N 37°47' W 122°33'714.2
2017-Dec-10 11:01N 37°44' W 122°41'510.5
2017-Dec-10 10:31N 37°39' W 122°40'510.3
2017-Dec-10 10:00N 37°34' W 122°40'5 9.8
2017-Dec-10 09:30N 37°29' W 122°40'5 9.6
2017-Dec-10 09:01N 37°24' W 122°40'5 9.6
2017-Dec-10 08:30N 37°20' W 122°40'510.0
2017-Dec-10 08:00N 37°15' W 122°39'611.3
2017-Dec-10 07:31N 37°09' W 122°38'713.6
2017-Dec-10 07:01N 37°03' W 122°35'713.7
2017-Dec-10 06:30N 36°56' W 122°32'714.4
2017-Dec-10 06:00N 36°50' W 122°29'713.9
2017-Dec-10 05:30N 36°43' W 122°25'714.2
2017-Dec-10 05:00N 36°37' W 122°22'714.1
2017-Dec-10 04:30N 36°30' W 122°18'714.1
2017-Dec-10 04:00N 36°24' W 122°15'714.4
2017-Dec-10 03:30N 36°17' W 122°12'714.6
2017-Dec-10 03:00N 36°11' W 122°07'714.4
2017-Dec-10 02:30N 36°05' W 122°03'714.7
2017-Dec-10 02:00N 35°58' W 121°58'714.5
2017-Dec-10 01:30N 35°52' W 121°54'714.4
2017-Dec-10 01:00N 35°46' W 121°49'714.3
2017-Dec-10 00:31N 35°40' W 121°45'714.3
2017-Dec-10 00:00N 35°33' W 121°40'814.5
2017-Dec-09 23:28N 35°27' W 121°35'714.6
2017-Dec-09 23:00N 35°21' W 121°31'714.5
2017-Dec-09 22:30N 35°15' W 121°27'714.5
2017-Dec-09 22:00N 35°08' W 121°22'714.7
2017-Dec-09 21:31N 35°02' W 121°18'714.6
2017-Dec-09 21:00N 34°56' W 121°13'714.5
2017-Dec-09 20:30N 34°50' W 121°09'714.5
2017-Dec-09 20:01N 34°43' W 121°04'714.3
2017-Dec-09 19:30N 34°37' W 120°60'713.1
2017-Dec-09 19:00N 34°32' W 120°55'613.0
2017-Dec-09 18:31N 34°26' W 120°51'510.3
2017-Dec-09 18:00N 34°25' W 120°45'510.6
2017-Dec-09 17:30N 34°23' W 120°39'610.5
2017-Dec-09 16:57N 34°22' W 120°32'510.4
2017-Dec-09 16:26N 34°20' W 120°26'510.4
2017-Dec-09 15:59N 34°19' W 120°20'610.5
2017-Dec-09 15:27N 34°18' W 120°14'510.4
2017-Dec-09 14:59N 34°16' W 120°08'510.5
2017-Dec-09 14:30N 34°15' W 120°02'510.5
2017-Dec-09 13:59N 34°14' W 119°56'510.3
2017-Dec-09 13:27N 34°12' W 119°50'510.2
2017-Dec-09 13:00N 34°11' W 119°44'510.4
2017-Dec-09 12:29N 34°10' W 119°38'510.7
2017-Dec-09 12:00N 34°08' W 119°32'610.6
2017-Dec-09 11:29N 34°07' W 119°25'510.6
2017-Dec-09 11:00N 34°05' W 119°20'610.7
2017-Dec-09 10:30N 34°03' W 119°13'510.9
2017-Dec-09 10:00N 34°01' W 119°08'510.7
2017-Dec-09 09:30N 33°58' W 119°02'510.7
2017-Dec-09 09:00N 33°55' W 118°57'610.7
2017-Dec-09 08:26N 33°53' W 118°50'510.9
2017-Dec-09 08:00N 33°50' W 118°45'510.7
2017-Dec-09 07:30N 33°47' W 118°40'510.7
2017-Dec-09 07:00N 33°45' W 118°34'510.7
2017-Dec-09 06:30N 33°42' W 118°29'510.6
2017-Dec-09 06:00N 33°39' W 118°23'510.2
2017-Dec-09 05:30N 33°38' W 118°17'5 9.0
2017-Dec-09 05:00N 33°40' W 118°12'1 0.1
2017-Dec-08 12:55N 33°39' W 118°11'9 7.9
2017-Dec-08 11:50N 33°31' W 118°08'3 9.1
2017-Dec-08 11:29N 33°28' W 118°06'11 9.3
2017-Dec-08 10:19N 33°18' W 118°02'3 9.3
2017-Dec-08 10:00N 33°15' W 118°00'5 9.4
2017-Dec-08 09:30N 33°11' W 117°58'5 9.5
2017-Dec-08 08:57N 33°06' W 117°55'4 9.6
2017-Dec-08 08:30N 33°02' W 117°53'5 9.6
2017-Dec-08 08:00N 32°58' W 117°51'5 9.7
2017-Dec-08 07:28N 32°53' W 117°49'4 9.7
2017-Dec-08 07:01N 32°49' W 117°47'5 9.7
2017-Dec-08 06:30N 32°45' W 117°44'510.1
2017-Dec-08 06:00N 32°40' W 117°42'713.3
2017-Dec-08 05:30N 32°34' W 117°39'9116.4
2017-Dec-08 00:00N 31°06' W 117°12'9415.6 060 / 151021.610.8 20.7 4.720.0
2017-Dec-07 18:00N 29°36' W 116°42'38316.0 050 / 31020.910.8 22.814.920.0
2017-Dec-06 18:00N 24°18' W 112°42'38115.9 350 / 51017.210.8 24.417.124.0
2017-Dec-05 18:00N 20°30' W 107°12'225 6.3 040 / 101014.810.8 29.120.329.0
2017-Dec-04 06:00N 18°24' W 103°54'16013.3 320 / 71011.110.8 27.022.429.0
2017-Dec-03 18:00N 17°12' W 101°24'20016.7 1012.210.8 29.619.930.0
2017-Dec-03 06:00N 15°54' W 098°12'18915.8 020 / 81011.810.8 27.023.730.0
2017-Dec-02 18:00N 14°54' W 095°06'   030 / 391011.210.8 24.518.421.0

Dump ship's entire track history